sensor_id;sensor_type;location;lat;lon;timestamp;P1;durP1;ratioP1;P2;durP2;ratioP2
55467;SDS011;41332;42.702;23.200;2023-05-07T16:57:37;4.95;;;2.78;;
55467;SDS011;41332;42.702;23.200;2023-05-07T17:00:03;3.35;;;2.80;;
55467;SDS011;41332;42.702;23.200;2023-05-07T17:02:31;2.95;;;2.75;;
55467;SDS011;41332;42.702;23.200;2023-05-07T17:04:57;2.92;;;2.72;;
55467;SDS011;41332;42.702;23.200;2023-05-07T17:07:24;2.65;;;2.45;;
55467;SDS011;41332;42.702;23.200;2023-05-07T17:09:50;4.75;;;2.72;;
55467;SDS011;41332;42.702;23.200;2023-05-07T17:12:16;3.33;;;2.40;;
55467;SDS011;41332;42.702;23.200;2023-05-07T17:14:41;2.92;;;2.58;;
55467;SDS011;41332;42.702;23.200;2023-05-07T17:17:07;6.63;;;2.65;;
55467;SDS011;41332;42.702;23.200;2023-05-07T17:19:32;4.45;;;3.83;;
55467;SDS011;41332;42.702;23.200;2023-05-07T17:22:01;3.33;;;3.03;;
55467;SDS011;41332;42.702;23.200;2023-05-07T17:24:26;3.63;;;3.30;;
55467;SDS011;41332;42.702;23.200;2023-05-07T17:26:52;3.33;;;3.13;;
55467;SDS011;41332;42.702;23.200;2023-05-07T17:29:17;3.42;;;3.13;;
55467;SDS011;41332;42.702;23.200;2023-05-07T17:31:44;9.38;;;3.08;;
55467;SDS011;41332;42.702;23.200;2023-05-07T17:34:09;6.03;;;3.03;;
55467;SDS011;41332;42.702;23.200;2023-05-07T17:36:35;2.75;;;2.65;;
55467;SDS011;41332;42.702;23.200;2023-05-07T17:39:00;2.78;;;2.58;;
55467;SDS011;41332;42.702;23.200;2023-05-07T17:41:27;4.50;;;2.78;;
55467;SDS011;41332;42.702;23.200;2023-05-07T17:43:52;2.80;;;2.67;;
55467;SDS011;41332;42.702;23.200;2023-05-07T17:46:20;4.82;;;2.92;;
55467;SDS011;41332;42.702;23.200;2023-05-07T17:48:46;5.45;;;3.83;;
55467;SDS011;41332;42.702;23.200;2023-05-07T17:51:11;11.88;;;10.52;;
55467;SDS011;41332;42.702;23.200;2023-05-07T17:53:37;21.02;;;16.17;;
55467;SDS011;41332;42.702;23.200;2023-05-07T17:56:02;9.55;;;8.52;;
55467;SDS011;41332;42.702;23.200;2023-05-07T17:58:28;6.35;;;5.18;;
55467;SDS011;41332;42.702;23.200;2023-05-07T18:00:53;4.93;;;4.50;;
55467;SDS011;41332;42.702;23.200;2023-05-07T18:03:19;4.15;;;2.90;;
55467;SDS011;41332;42.702;23.200;2023-05-07T18:05:45;4.13;;;3.00;;
55467;SDS011;41332;42.702;23.200;2023-05-07T18:08:10;3.45;;;3.20;;
55467;SDS011;41332;42.702;23.200;2023-05-07T18:10:36;4.43;;;3.50;;
55467;SDS011;41332;42.702;23.200;2023-05-07T18:13:01;7.40;;;3.05;;
55467;SDS011;41332;42.702;23.200;2023-05-07T18:15:27;4.15;;;3.17;;
55467;SDS011;41332;42.702;23.200;2023-05-07T18:17:52;3.25;;;3.03;;
55467;SDS011;41332;42.702;23.200;2023-05-07T18:20:21;4.25;;;2.97;;
55467;SDS011;41332;42.702;23.200;2023-05-07T18:22:46;4.75;;;3.53;;
55467;SDS011;41332;42.702;23.200;2023-05-07T18:25:11;4.18;;;2.92;;
55467;SDS011;41332;42.702;23.200;2023-05-07T18:27:37;3.42;;;3.22;;
55467;SDS011;41332;42.702;23.200;2023-05-07T18:30:02;4.20;;;3.20;;
55467;SDS011;41332;42.702;23.200;2023-05-07T18:32:28;3.75;;;2.80;;
55467;SDS011;41332;42.702;23.200;2023-05-07T18:34:53;4.80;;;3.20;;
55467;SDS011;41332;42.702;23.200;2023-05-07T18:37:19;6.68;;;3.60;;
55467;SDS011;41332;42.702;23.200;2023-05-07T18:39:44;5.00;;;4.25;;
55467;SDS011;41332;42.702;23.200;2023-05-07T18:42:11;6.55;;;5.32;;
55467;SDS011;41332;42.702;23.200;2023-05-07T18:44:36;10.02;;;9.10;;
55467;SDS011;41332;42.702;23.200;2023-05-07T18:47:05;11.68;;;8.77;;
55467;SDS011;41332;42.702;23.200;2023-05-07T18:49:42;7.75;;;6.90;;
55467;SDS011;41332;42.702;23.200;2023-05-07T18:52:10;6.70;;;6.20;;
55467;SDS011;41332;42.702;23.200;2023-05-07T18:54:35;6.43;;;5.82;;
55467;SDS011;41332;42.702;23.200;2023-05-07T18:57:01;6.68;;;4.70;;
55467;SDS011;41332;42.702;23.200;2023-05-07T18:59:26;7.28;;;6.70;;
55467;SDS011;41332;42.702;23.200;2023-05-07T19:01:51;7.68;;;6.97;;
55467;SDS011;41332;42.702;23.200;2023-05-07T19:04:17;5.53;;;5.13;;
55467;SDS011;41332;42.702;23.200;2023-05-07T19:06:42;4.30;;;3.92;;
55467;SDS011;41332;42.702;23.200;2023-05-07T19:09:08;4.43;;;4.03;;
55467;SDS011;41332;42.702;23.200;2023-05-07T19:11:33;4.38;;;3.97;;
55467;SDS011;41332;42.702;23.200;2023-05-07T19:13:58;8.65;;;5.45;;
55467;SDS011;41332;42.702;23.200;2023-05-07T19:16:24;6.05;;;4.85;;
55467;SDS011;41332;42.702;23.200;2023-05-07T19:18:49;6.80;;;6.20;;
55467;SDS011;41332;42.702;23.200;2023-05-07T19:21:15;7.40;;;6.13;;
55467;SDS011;41332;42.702;23.200;2023-05-07T19:23:40;7.65;;;6.25;;
55467;SDS011;41332;42.702;23.200;2023-05-07T19:26:09;9.00;;;5.38;;
55467;SDS011;41332;42.702;23.200;2023-05-07T19:28:38;7.40;;;6.13;;
55467;SDS011;41332;42.702;23.200;2023-05-07T19:31:04;5.82;;;5.30;;
55467;SDS011;41332;42.702;23.200;2023-05-07T19:33:30;5.57;;;5.18;;
55467;SDS011;41332;42.702;23.200;2023-05-07T19:35:56;6.35;;;5.75;;
55467;SDS011;41332;42.702;23.200;2023-05-07T19:38:25;6.90;;;6.30;;
55467;SDS011;41332;42.702;23.200;2023-05-07T19:40:52;8.88;;;7.22;;
55467;SDS011;41332;42.702;23.200;2023-05-07T19:43:21;9.98;;;7.93;;
55467;SDS011;41332;42.702;23.200;2023-05-07T19:45:47;11.70;;;9.50;;
55467;SDS011;41332;42.702;23.200;2023-05-07T19:48:13;11.05;;;8.18;;
55467;SDS011;41332;42.702;23.200;2023-05-07T19:50:39;11.82;;;10.63;;
55467;SDS011;41332;42.702;23.200;2023-05-07T19:53:04;11.80;;;9.75;;
55467;SDS011;41332;42.702;23.200;2023-05-07T19:55:30;10.60;;;8.40;;
55467;SDS011;41332;42.702;23.200;2023-05-07T19:57:55;7.43;;;6.82;;
55467;SDS011;41332;42.702;23.200;2023-05-07T20:00:21;15.48;;;8.93;;
55467;SDS011;41332;42.702;23.200;2023-05-07T20:02:50;24.58;;;15.82;;
55467;SDS011;41332;42.702;23.200;2023-05-07T20:05:15;25.70;;;14.82;;
55467;SDS011;41332;42.702;23.200;2023-05-07T20:07:41;12.77;;;9.07;;
55467;SDS011;41332;42.702;23.200;2023-05-07T20:10:06;9.63;;;7.32;;
55467;SDS011;41332;42.702;23.200;2023-05-07T20:12:32;9.25;;;6.63;;
55467;SDS011;41332;42.702;23.200;2023-05-07T20:14:58;9.35;;;7.68;;
55467;SDS011;41332;42.702;23.200;2023-05-07T20:17:23;6.82;;;6.13;;
55467;SDS011;41332;42.702;23.200;2023-05-07T20:19:52;4.82;;;4.43;;
55467;SDS011;41332;42.702;23.200;2023-05-07T20:22:18;8.52;;;3.97;;
55467;SDS011;41332;42.702;23.200;2023-05-07T20:24:44;6.57;;;3.88;;
55467;SDS011;41332;42.702;23.200;2023-05-07T20:27:09;7.40;;;4.15;;
55467;SDS011;41332;42.702;23.200;2023-05-07T20:29:35;6.90;;;4.88;;
55467;SDS011;41332;42.702;23.200;2023-05-07T20:32:00;6.47;;;4.43;;
55467;SDS011;41332;42.702;23.200;2023-05-07T20:34:26;4.20;;;3.85;;
55467;SDS011;41332;42.702;23.200;2023-05-07T20:36:52;5.45;;;4.95;;
55467;SDS011;41332;42.702;23.200;2023-05-07T20:39:18;4.63;;;4.10;;
55467;SDS011;41332;42.702;23.200;2023-05-07T20:41:43;5.38;;;4.88;;
55467;SDS011;41332;42.702;23.200;2023-05-07T20:44:09;5.28;;;4.38;;
55467;SDS011;41332;42.702;23.200;2023-05-07T20:46:35;6.78;;;4.65;;
55467;SDS011;41332;42.702;23.200;2023-05-07T20:49:01;4.20;;;3.70;;
55467;SDS011;41332;42.702;23.200;2023-05-07T20:51:27;6.32;;;4.18;;
55467;SDS011;41332;42.702;23.200;2023-05-07T20:53:53;3.83;;;3.53;;
55467;SDS011;41332;42.702;23.200;2023-05-07T20:56:19;5.28;;;4.70;;
55467;SDS011;41332;42.702;23.200;2023-05-07T20:58:45;5.20;;;4.00;;
55467;SDS011;41332;42.702;23.200;2023-05-07T21:01:10;5.20;;;4.70;;
55467;SDS011;41332;42.702;23.200;2023-05-07T21:03:36;5.15;;;4.60;;
55467;SDS011;41332;42.702;23.200;2023-05-07T21:06:01;9.55;;;4.80;;
55467;SDS011;41332;42.702;23.200;2023-05-07T21:08:28;5.68;;;4.53;;
55467;SDS011;41332;42.702;23.200;2023-05-07T21:10:53;4.38;;;3.92;;
55467;SDS011;41332;42.702;23.200;2023-05-07T21:13:19;5.93;;;4.63;;
55467;SDS011;41332;42.702;23.200;2023-05-07T21:15:45;6.30;;;4.53;;
55467;SDS011;41332;42.702;23.200;2023-05-07T21:18:10;6.72;;;5.28;;
55467;SDS011;41332;42.702;23.200;2023-05-07T21:20:36;5.50;;;4.40;;
55467;SDS011;41332;42.702;23.200;2023-05-07T21:23:01;5.85;;;4.65;;
55467;SDS011;41332;42.702;23.200;2023-05-07T21:25:27;7.07;;;5.03;;
55467;SDS011;41332;42.702;23.200;2023-05-07T21:27:53;6.80;;;4.55;;
55467;SDS011;41332;42.702;23.200;2023-05-07T21:30:19;6.60;;;4.88;;
55467;SDS011;41332;42.702;23.200;2023-05-07T21:32:44;5.45;;;4.95;;
55467;SDS011;41332;42.702;23.200;2023-05-07T21:35:10;5.80;;;4.35;;
55467;SDS011;41332;42.702;23.200;2023-05-07T21:37:35;5.47;;;4.82;;
55467;SDS011;41332;42.702;23.200;2023-05-07T21:40:01;7.30;;;4.85;;
55467;SDS011;41332;42.702;23.200;2023-05-07T21:42:27;5.25;;;4.75;;
55467;SDS011;41332;42.702;23.200;2023-05-07T21:44:53;4.93;;;4.40;;
55467;SDS011;41332;42.702;23.200;2023-05-07T21:47:18;5.32;;;4.80;;
55467;SDS011;41332;42.702;23.200;2023-05-07T21:49:44;6.93;;;4.35;;
55467;SDS011;41332;42.702;23.200;2023-05-07T21:52:13;6.43;;;5.35;;
55467;SDS011;41332;42.702;23.200;2023-05-07T21:54:39;12.02;;;4.90;;
55467;SDS011;41332;42.702;23.200;2023-05-07T21:57:05;6.97;;;5.38;;
55467;SDS011;41332;42.702;23.200;2023-05-07T21:59:30;6.25;;;5.32;;
55467;SDS011;41332;42.702;23.200;2023-05-07T22:01:58;5.32;;;4.82;;
55467;SDS011;41332;42.702;23.200;2023-05-07T22:04:23;6.40;;;5.05;;
55467;SDS011;41332;42.702;23.200;2023-05-07T22:06:49;5.32;;;4.72;;
55467;SDS011;41332;42.702;23.200;2023-05-07T22:09:17;5.35;;;4.85;;
55467;SDS011;41332;42.702;23.200;2023-05-07T22:11:42;5.97;;;4.85;;
55467;SDS011;41332;42.702;23.200;2023-05-07T22:14:08;5.43;;;4.80;;
55467;SDS011;41332;42.702;23.200;2023-05-07T22:16:33;5.80;;;5.30;;
55467;SDS011;41332;42.702;23.200;2023-05-07T22:18:59;8.65;;;5.30;;
55467;SDS011;41332;42.702;23.200;2023-05-07T22:21:25;8.50;;;5.90;;
55467;SDS011;41332;42.702;23.200;2023-05-07T22:23:53;6.47;;;5.03;;
55467;SDS011;41332;42.702;23.200;2023-05-07T22:26:18;7.05;;;5.13;;
55467;SDS011;41332;42.702;23.200;2023-05-07T22:28:44;5.75;;;5.15;;
55467;SDS011;41332;42.702;23.200;2023-05-07T22:31:09;6.75;;;5.18;;
55467;SDS011;41332;42.702;23.200;2023-05-07T22:33:35;7.18;;;5.47;;
55467;SDS011;41332;42.702;23.200;2023-05-07T22:36:00;7.40;;;6.00;;
55467;SDS011;41332;42.702;23.200;2023-05-07T22:38:26;5.13;;;4.72;;
55467;SDS011;41332;42.702;23.200;2023-05-07T22:40:51;5.75;;;5.25;;
55467;SDS011;41332;42.702;23.200;2023-05-07T22:43:16;10.75;;;6.35;;
55467;SDS011;41332;42.702;23.200;2023-05-07T22:45:42;6.25;;;5.43;;
55467;SDS011;41332;42.702;23.200;2023-05-07T22:48:07;7.35;;;5.30;;
55467;SDS011;41332;42.702;23.200;2023-05-07T22:50:36;6.18;;;5.47;;
55467;SDS011;41332;42.702;23.200;2023-05-07T22:53:02;6.30;;;5.72;;
55467;SDS011;41332;42.702;23.200;2023-05-07T22:55:28;5.03;;;4.50;;
55467;SDS011;41332;42.702;23.200;2023-05-07T22:57:54;5.22;;;4.72;;
55467;SDS011;41332;42.702;23.200;2023-05-07T23:00:19;9.57;;;5.47;;
55467;SDS011;41332;42.702;23.200;2023-05-07T23:02:45;6.03;;;5.45;;
55467;SDS011;41332;42.702;23.200;2023-05-07T23:05:10;8.23;;;5.88;;
55467;SDS011;41332;42.702;23.200;2023-05-07T23:07:36;6.85;;;5.00;;
55467;SDS011;41332;42.702;23.200;2023-05-07T23:10:02;4.88;;;4.47;;
55467;SDS011;41332;42.702;23.200;2023-05-07T23:12:28;6.30;;;5.22;;
55467;SDS011;41332;42.702;23.200;2023-05-07T23:14:53;6.93;;;5.47;;
55467;SDS011;41332;42.702;23.200;2023-05-07T23:17:18;8.27;;;5.93;;
55467;SDS011;41332;42.702;23.200;2023-05-07T23:19:44;8.10;;;6.82;;
55467;SDS011;41332;42.702;23.200;2023-05-07T23:22:09;9.13;;;6.18;;
55467;SDS011;41332;42.702;23.200;2023-05-07T23:24:35;8.18;;;6.35;;
55467;SDS011;41332;42.702;23.200;2023-05-07T23:27:03;10.95;;;7.53;;
55467;SDS011;41332;42.702;23.200;2023-05-07T23:29:29;9.98;;;6.90;;
55467;SDS011;41332;42.702;23.200;2023-05-07T23:31:55;8.93;;;6.50;;
55467;SDS011;41332;42.702;23.200;2023-05-07T23:34:21;7.60;;;6.25;;
55467;SDS011;41332;42.702;23.200;2023-05-07T23:36:48;9.20;;;6.65;;
55467;SDS011;41332;42.702;23.200;2023-05-07T23:39:14;8.85;;;6.60;;
55467;SDS011;41332;42.702;23.200;2023-05-07T23:41:40;8.98;;;6.85;;
55467;SDS011;41332;42.702;23.200;2023-05-07T23:44:05;7.30;;;6.30;;
55467;SDS011;41332;42.702;23.200;2023-05-07T23:46:31;9.35;;;6.50;;
55467;SDS011;41332;42.702;23.200;2023-05-07T23:48:56;8.75;;;6.45;;
55467;SDS011;41332;42.702;23.200;2023-05-07T23:51:22;7.68;;;6.47;;
55467;SDS011;41332;42.702;23.200;2023-05-07T23:53:47;7.13;;;6.43;;
55467;SDS011;41332;42.702;23.200;2023-05-07T23:56:12;10.20;;;6.63;;
55467;SDS011;41332;42.702;23.200;2023-05-07T23:58:38;7.35;;;6.13;;
